This is the latest recevied weather packets stored in our database for station/object IZ3TCG-13. If no packets are shown the sender has not sent any weather packets the latest 10 day(s).
| Time | Temp. | Humidity | Pressure | Rain* | Wind** | Luminosity | Snow |
|---|---|---|---|---|---|---|---|
| 1777317843 | 17.78° C | 73% | 1010.8 hPa | 0 mm | - | - | - |
| 1777317124 | 17.78° C | 71% | 1010.8 hPa | 0 mm | - | - | - |
| 1777316883 | 18.33° C | 71% | 1010.9 hPa | 0 mm | - | - | - |
| 1777316644 | 18.33° C | 70% | 1010.8 hPa | 0 mm | - | - | - |
| 1777312803 | 19.44° C | 60% | 1010.3 hPa | 0 mm | - | - | - |
| 1777312564 | 20° C | 59% | 1010.2 hPa | 0 mm | - | - | - |
| 1777311364 | 20.56° C | 58% | 1010 hPa | 0 mm | - | - | - |
| 1777309684 | 21.67° C | 56% | 1010 hPa | 0 mm | - | - | - |
| 1777307897 | 22.22° C | 51% | 1010.1 hPa | 0 mm | - | - | - |
| 1777307524 | 22.22° C | 49% | 1010.2 hPa | 0 mm | - | - | - |
| 1777305844 | 23.33° C | 54% | 1010.3 hPa | 0 mm | - | - | - |
| 1777304538 | 23.33° C | 57% | 1010.4 hPa | 0 mm | - | - | - |
| 1777298884 | 25.56° C | 47% | 1010.5 hPa | 0 mm | - | - | - |
| 1777297575 | 25.56° C | 47% | 1011.1 hPa | 0 mm | - | - | - |
| 1777296723 | 25.56° C | 45% | 1011.3 hPa | 0 mm | - | - | - |
| 1777295524 | 25.56° C | 49% | 1011.5 hPa | 0 mm | - | - | - |
| 1777293124 | 25.56° C | 44% | 1011.7 hPa | 0 mm | - | - | - |
| 1777292537 | 25° C | 43% | 1012 hPa | 0 mm | - | - | - |
| 1777291444 | 25° C | 48% | 1012.1 hPa | 0 mm | - | - | - |
| 1777290244 | 23.89° C | 47% | 1012.6 hPa | 0 mm | - | - | - |
| 1777289524 | 24.44° C | 44% | 1012.5 hPa | 0 mm | - | - | - |
| 1777287604 | 23.89° C | 46% | 1012.6 hPa | 0 mm | - | - | - |
| 1777286644 | 23.89° C | 44% | 1013.1 hPa | 0 mm | - | - | - |
| 1777286404 | 24.44° C | 42% | 1013 hPa | 0 mm | - | - | - |
| 1777286164 | 23.89° C | 46% | 1013 hPa | 0 mm | - | - | - |
* Rain latest hour (hover to see other rain measurements)
** Current wind speed in m/s (hover to see current wind gust speed)